sensor_id;sensor_type;location;lat;lon;timestamp;temperature;humidity
3850;DHT22;1940;51.052;13.678;2024-02-14T00:01:00;4.10;84.40
3850;DHT22;1940;51.052;13.678;2024-02-14T00:03:26;4.10;84.50
3850;DHT22;1940;51.052;13.678;2024-02-14T00:05:52;4.10;84.40
3850;DHT22;1940;51.052;13.678;2024-02-14T00:08:18;4.10;84.40
3850;DHT22;1940;51.052;13.678;2024-02-14T00:10:43;4.10;84.40
3850;DHT22;1940;51.052;13.678;2024-02-14T00:13:10;4.20;84.50
3850;DHT22;1940;51.052;13.678;2024-02-14T00:15:36;4.20;84.50
3850;DHT22;1940;51.052;13.678;2024-02-14T00:18:02;4.30;84.30
3850;DHT22;1940;51.052;13.678;2024-02-14T00:20:27;4.30;84.10
3850;DHT22;1940;51.052;13.678;2024-02-14T00:22:53;4.20;84.10
3850;DHT22;1940;51.052;13.678;2024-02-14T00:25:18;4.20;84.40
3850;DHT22;1940;51.052;13.678;2024-02-14T00:27:44;4.20;84.40
3850;DHT22;1940;51.052;13.678;2024-02-14T00:30:09;4.20;84.50
3850;DHT22;1940;51.052;13.678;2024-02-14T00:32:35;4.30;84.30
3850;DHT22;1940;51.052;13.678;2024-02-14T00:35:01;4.20;84.40
3850;DHT22;1940;51.052;13.678;2024-02-14T00:37:26;4.30;84.10
3850;DHT22;1940;51.052;13.678;2024-02-14T00:39:52;4.30;84.30
3850;DHT22;1940;51.052;13.678;2024-02-14T00:42:19;4.40;84.30
3850;DHT22;1940;51.052;13.678;2024-02-14T00:44:44;4.40;84.10
3850;DHT22;1940;51.052;13.678;2024-02-14T00:47:10;4.40;84.30
3850;DHT22;1940;51.052;13.678;2024-02-14T00:49:36;4.40;84.30
3850;DHT22;1940;51.052;13.678;2024-02-14T00:52:02;4.30;84.30
3850;DHT22;1940;51.052;13.678;2024-02-14T00:54:27;4.30;84.40
3850;DHT22;1940;51.052;13.678;2024-02-14T00:56:53;4.40;84.50
3850;DHT22;1940;51.052;13.678;2024-02-14T00:59:18;4.40;84.40
3850;DHT22;1940;51.052;13.678;2024-02-14T01:01:43;4.50;84.50
3850;DHT22;1940;51.052;13.678;2024-02-14T01:04:10;4.50;84.40
3850;DHT22;1940;51.052;13.678;2024-02-14T01:06:35;4.40;84.40
3850;DHT22;1940;51.052;13.678;2024-02-14T01:09:01;4.30;84.60
3850;DHT22;1940;51.052;13.678;2024-02-14T01:11:26;4.30;84.60
3850;DHT22;1940;51.052;13.678;2024-02-14T01:13:52;4.20;84.80
3850;DHT22;1940;51.052;13.678;2024-02-14T01:16:17;4.10;85.10
3850;DHT22;1940;51.052;13.678;2024-02-14T01:18:43;4.20;85.10
3850;DHT22;1940;51.052;13.678;2024-02-14T01:21:09;4.10;85.00
3850;DHT22;1940;51.052;13.678;2024-02-14T01:23:34;4.00;85.10
3850;DHT22;1940;51.052;13.678;2024-02-14T01:26:00;4.00;85.60
3850;DHT22;1940;51.052;13.678;2024-02-14T01:28:27;4.00;85.70
3850;DHT22;1940;51.052;13.678;2024-02-14T01:30:52;4.00;85.90
3850;DHT22;1940;51.052;13.678;2024-02-14T01:33:18;4.00;86.10
3850;DHT22;1940;51.052;13.678;2024-02-14T01:35:43;4.00;86.10
3850;DHT22;1940;51.052;13.678;2024-02-14T01:38:09;4.00;86.10
3850;DHT22;1940;51.052;13.678;2024-02-14T01:40:37;4.00;86.20
3850;DHT22;1940;51.052;13.678;2024-02-14T01:43:02;4.00;86.20
3850;DHT22;1940;51.052;13.678;2024-02-14T01:45:28;3.90;86.20
3850;DHT22;1940;51.052;13.678;2024-02-14T01:47:54;3.80;86.30
3850;DHT22;1940;51.052;13.678;2024-02-14T01:50:21;3.80;86.50
3850;DHT22;1940;51.052;13.678;2024-02-14T01:52:54;3.70;86.70
3850;DHT22;1940;51.052;13.678;2024-02-14T01:55:21;3.70;86.80
3850;DHT22;1940;51.052;13.678;2024-02-14T01:57:47;3.70;87.00
3850;DHT22;1940;51.052;13.678;2024-02-14T02:00:13;3.60;87.10
3850;DHT22;1940;51.052;13.678;2024-02-14T02:02:43;3.70;87.00
3850;DHT22;1940;51.052;13.678;2024-02-14T02:05:09;3.70;87.10
3850;DHT22;1940;51.052;13.678;2024-02-14T02:07:35;3.70;87.10
3850;DHT22;1940;51.052;13.678;2024-02-14T02:10:01;3.70;87.10
3850;DHT22;1940;51.052;13.678;2024-02-14T02:12:29;3.70;87.10
3850;DHT22;1940;51.052;13.678;2024-02-14T02:14:54;3.70;87.00
3850;DHT22;1940;51.052;13.678;2024-02-14T02:17:20;3.70;86.90
3850;DHT22;1940;51.052;13.678;2024-02-14T02:19:46;3.70;87.00
3850;DHT22;1940;51.052;13.678;2024-02-14T02:22:11;3.60;87.10
3850;DHT22;1940;51.052;13.678;2024-02-14T02:24:37;3.60;87.20
3850;DHT22;1940;51.052;13.678;2024-02-14T02:27:04;3.60;87.20
3850;DHT22;1940;51.052;13.678;2024-02-14T02:29:30;3.50;87.30
3850;DHT22;1940;51.052;13.678;2024-02-14T02:31:57;3.50;87.30
3850;DHT22;1940;51.052;13.678;2024-02-14T02:34:23;3.50;87.60
3850;DHT22;1940;51.052;13.678;2024-02-14T02:36:48;3.50;87.70
3850;DHT22;1940;51.052;13.678;2024-02-14T02:39:16;3.40;88.00
3850;DHT22;1940;51.052;13.678;2024-02-14T02:41:42;3.40;88.30
3850;DHT22;1940;51.052;13.678;2024-02-14T02:44:07;3.40;88.30
3850;DHT22;1940;51.052;13.678;2024-02-14T02:46:33;3.50;88.20
3850;DHT22;1940;51.052;13.678;2024-02-14T02:48:58;3.50;88.20
3850;DHT22;1940;51.052;13.678;2024-02-14T02:51:24;3.50;88.00
3850;DHT22;1940;51.052;13.678;2024-02-14T02:53:50;3.50;87.90
3850;DHT22;1940;51.052;13.678;2024-02-14T02:56:17;3.50;87.80
3850;DHT22;1940;51.052;13.678;2024-02-14T02:58:43;3.50;87.80
3850;DHT22;1940;51.052;13.678;2024-02-14T03:01:10;3.50;87.90
3850;DHT22;1940;51.052;13.678;2024-02-14T03:03:37;3.60;87.90
3850;DHT22;1940;51.052;13.678;2024-02-14T03:06:04;3.50;88.00
3850;DHT22;1940;51.052;13.678;2024-02-14T03:08:30;3.60;88.00
3850;DHT22;1940;51.052;13.678;2024-02-14T03:10:56;3.60;87.90
3850;DHT22;1940;51.052;13.678;2024-02-14T03:13:24;3.50;88.00
3850;DHT22;1940;51.052;13.678;2024-02-14T03:15:50;3.50;88.00
3850;DHT22;1940;51.052;13.678;2024-02-14T03:18:16;3.50;87.90
3850;DHT22;1940;51.052;13.678;2024-02-14T03:20:41;3.60;87.90
3850;DHT22;1940;51.052;13.678;2024-02-14T03:23:07;3.60;87.80
3850;DHT22;1940;51.052;13.678;2024-02-14T03:25:32;3.60;87.70
3850;DHT22;1940;51.052;13.678;2024-02-14T03:27:57;3.60;87.70
3850;DHT22;1940;51.052;13.678;2024-02-14T03:30:24;3.60;87.70
3850;DHT22;1940;51.052;13.678;2024-02-14T03:32:50;3.70;87.60
3850;DHT22;1940;51.052;13.678;2024-02-14T03:35:16;3.70;87.40
3850;DHT22;1940;51.052;13.678;2024-02-14T03:37:42;3.70;87.30
3850;DHT22;1940;51.052;13.678;2024-02-14T03:40:09;3.60;87.30
3850;DHT22;1940;51.052;13.678;2024-02-14T03:42:35;3.60;87.50
3850;DHT22;1940;51.052;13.678;2024-02-14T03:45:01;3.60;87.60
3850;DHT22;1940;51.052;13.678;2024-02-14T03:47:31;3.50;87.30
3850;DHT22;1940;51.052;13.678;2024-02-14T03:50:00;3.50;87.50
3850;DHT22;1940;51.052;13.678;2024-02-14T03:52:28;3.50;87.60
3850;DHT22;1940;51.052;13.678;2024-02-14T03:54:55;3.40;87.70
3850;DHT22;1940;51.052;13.678;2024-02-14T03:57:20;3.40;87.70
3850;DHT22;1940;51.052;13.678;2024-02-14T03:59:46;3.30;88.00
3850;DHT22;1940;51.052;13.678;2024-02-14T04:02:12;3.30;88.10
3850;DHT22;1940;51.052;13.678;2024-02-14T04:04:42;3.40;88.20
3850;DHT22;1940;51.052;13.678;2024-02-14T04:07:08;3.50;87.90
3850;DHT22;1940;51.052;13.678;2024-02-14T04:09:35;3.50;87.70
3850;DHT22;1940;51.052;13.678;2024-02-14T04:12:01;3.60;87.70
3850;DHT22;1940;51.052;13.678;2024-02-14T04:14:26;3.60;87.70
3850;DHT22;1940;51.052;13.678;2024-02-14T04:16:52;3.70;87.50
3850;DHT22;1940;51.052;13.678;2024-02-14T04:19:17;3.80;87.50
3850;DHT22;1940;51.052;13.678;2024-02-14T04:21:44;3.80;87.30
3850;DHT22;1940;51.052;13.678;2024-02-14T04:24:09;3.90;87.20
3850;DHT22;1940;51.052;13.678;2024-02-14T04:26:35;3.90;86.90
3850;DHT22;1940;51.052;13.678;2024-02-14T04:29:01;3.90;86.80
3850;DHT22;1940;51.052;13.678;2024-02-14T04:31:26;3.90;86.80
3850;DHT22;1940;51.052;13.678;2024-02-14T04:33:52;3.90;86.80
3850;DHT22;1940;51.052;13.678;2024-02-14T04:36:19;4.00;86.60
3850;DHT22;1940;51.052;13.678;2024-02-14T04:38:51;4.00;86.50
3850;DHT22;1940;51.052;13.678;2024-02-14T04:41:21;3.90;86.60
3850;DHT22;1940;51.052;13.678;2024-02-14T04:43:46;3.90;86.60
3850;DHT22;1940;51.052;13.678;2024-02-14T04:46:12;3.90;86.50
3850;DHT22;1940;51.052;13.678;2024-02-14T04:48:38;3.80;86.60
3850;DHT22;1940;51.052;13.678;2024-02-14T04:51:04;3.80;86.70
3850;DHT22;1940;51.052;13.678;2024-02-14T04:53:30;3.80;86.60
3850;DHT22;1940;51.052;13.678;2024-02-14T04:55:56;3.80;86.60
3850;DHT22;1940;51.052;13.678;2024-02-14T04:58:22;3.70;86.70
3850;DHT22;1940;51.052;13.678;2024-02-14T05:00:47;3.70;86.70
3850;DHT22;1940;51.052;13.678;2024-02-14T05:03:13;3.70;86.60
3850;DHT22;1940;51.052;13.678;2024-02-14T05:05:38;3.60;86.80
3850;DHT22;1940;51.052;13.678;2024-02-14T05:08:04;3.60;87.00
3850;DHT22;1940;51.052;13.678;2024-02-14T05:10:30;3.50;87.10
3850;DHT22;1940;51.052;13.678;2024-02-14T05:12:59;3.50;87.20
3850;DHT22;1940;51.052;13.678;2024-02-14T05:15:25;3.50;87.30
3850;DHT22;1940;51.052;13.678;2024-02-14T05:17:51;3.60;87.40
3850;DHT22;1940;51.052;13.678;2024-02-14T05:20:17;3.60;87.40
3850;DHT22;1940;51.052;13.678;2024-02-14T05:22:42;3.60;87.50
3850;DHT22;1940;51.052;13.678;2024-02-14T05:25:08;3.70;87.40
3850;DHT22;1940;51.052;13.678;2024-02-14T05:27:35;3.70;87.30
3850;DHT22;1940;51.052;13.678;2024-02-14T05:30:01;3.70;87.20
3850;DHT22;1940;51.052;13.678;2024-02-14T05:32:26;3.80;87.10
3850;DHT22;1940;51.052;13.678;2024-02-14T05:34:52;3.80;86.90
3850;DHT22;1940;51.052;13.678;2024-02-14T05:37:17;3.80;86.90
3850;DHT22;1940;51.052;13.678;2024-02-14T05:39:43;3.80;86.70
3850;DHT22;1940;51.052;13.678;2024-02-14T05:42:08;3.90;86.80
3850;DHT22;1940;51.052;13.678;2024-02-14T05:44:34;3.90;86.60
3850;DHT22;1940;51.052;13.678;2024-02-14T05:47:00;4.00;86.20
3850;DHT22;1940;51.052;13.678;2024-02-14T05:49:26;4.00;86.30
3850;DHT22;1940;51.052;13.678;2024-02-14T05:51:51;4.10;86.30
3850;DHT22;1940;51.052;13.678;2024-02-14T05:54:18;4.10;85.90
3850;DHT22;1940;51.052;13.678;2024-02-14T05:56:44;4.10;85.70
3850;DHT22;1940;51.052;13.678;2024-02-14T05:59:10;4.20;85.90
3850;DHT22;1940;51.052;13.678;2024-02-14T06:01:35;4.20;85.30
3850;DHT22;1940;51.052;13.678;2024-02-14T06:04:01;4.20;85.20
3850;DHT22;1940;51.052;13.678;2024-02-14T06:06:26;4.20;85.00
3850;DHT22;1940;51.052;13.678;2024-02-14T06:08:52;4.20;85.10
3850;DHT22;1940;51.052;13.678;2024-02-14T06:11:17;4.20;85.20
3850;DHT22;1940;51.052;13.678;2024-02-14T06:13:49;4.30;85.10
3850;DHT22;1940;51.052;13.678;2024-02-14T06:16:14;4.30;85.10
3850;DHT22;1940;51.052;13.678;2024-02-14T06:18:40;4.30;85.00
3850;DHT22;1940;51.052;13.678;2024-02-14T06:21:06;4.40;85.00
3850;DHT22;1940;51.052;13.678;2024-02-14T06:23:31;4.40;84.80
3850;DHT22;1940;51.052;13.678;2024-02-14T06:25:58;4.40;84.80
3850;DHT22;1940;51.052;13.678;2024-02-14T06:28:23;4.40;84.90
3850;DHT22;1940;51.052;13.678;2024-02-14T06:30:49;4.50;84.80
3850;DHT22;1940;51.052;13.678;2024-02-14T06:33:14;4.60;84.70
3850;DHT22;1940;51.052;13.678;2024-02-14T06:35:40;4.60;84.40
3850;DHT22;1940;51.052;13.678;2024-02-14T06:38:09;4.60;84.60
3850;DHT22;1940;51.052;13.678;2024-02-14T06:40:34;4.70;84.40
3850;DHT22;1940;51.052;13.678;2024-02-14T06:43:00;4.80;84.50
3850;DHT22;1940;51.052;13.678;2024-02-14T06:45:29;4.90;84.30
3850;DHT22;1940;51.052;13.678;2024-02-14T06:47:54;4.90;84.30
3850;DHT22;1940;51.052;13.678;2024-02-14T06:50:20;5.00;84.00
3850;DHT22;1940;51.052;13.678;2024-02-14T06:52:45;5.00;83.90
3850;DHT22;1940;51.052;13.678;2024-02-14T06:55:11;4.90;84.10
3850;DHT22;1940;51.052;13.678;2024-02-14T06:57:36;4.90;83.90
3850;DHT22;1940;51.052;13.678;2024-02-14T07:00:03;4.90;83.90
3850;DHT22;1940;51.052;13.678;2024-02-14T07:02:31;5.00;83.90
3850;DHT22;1940;51.052;13.678;2024-02-14T07:04:56;5.00;84.10
3850;DHT22;1940;51.052;13.678;2024-02-14T07:07:22;5.00;84.20
3850;DHT22;1940;51.052;13.678;2024-02-14T07:09:47;5.00;84.30
3850;DHT22;1940;51.052;13.678;2024-02-14T07:12:13;5.10;84.30
3850;DHT22;1940;51.052;13.678;2024-02-14T07:14:38;5.10;84.30
3850;DHT22;1940;51.052;13.678;2024-02-14T07:17:04;5.20;84.40
3850;DHT22;1940;51.052;13.678;2024-02-14T07:19:29;5.30;84.30
3850;DHT22;1940;51.052;13.678;2024-02-14T07:21:54;5.40;84.10
3850;DHT22;1940;51.052;13.678;2024-02-14T07:24:20;5.50;83.70
3850;DHT22;1940;51.052;13.678;2024-02-14T07:26:46;5.50;83.60
3850;DHT22;1940;51.052;13.678;2024-02-14T07:29:11;5.50;83.30
3850;DHT22;1940;51.052;13.678;2024-02-14T07:31:37;5.60;83.30
3850;DHT22;1940;51.052;13.678;2024-02-14T07:34:02;5.70;83.20
3850;DHT22;1940;51.052;13.678;2024-02-14T07:36:31;5.80;82.90
3850;DHT22;1940;51.052;13.678;2024-02-14T07:38:57;5.90;82.70
3850;DHT22;1940;51.052;13.678;2024-02-14T07:41:23;6.00;82.60
3850;DHT22;1940;51.052;13.678;2024-02-14T07:43:48;6.10;82.40
3850;DHT22;1940;51.052;13.678;2024-02-14T07:46:18;6.20;82.00
3850;DHT22;1940;51.052;13.678;2024-02-14T07:48:44;6.30;81.40
3850;DHT22;1940;51.052;13.678;2024-02-14T07:51:09;6.50;81.20
3850;DHT22;1940;51.052;13.678;2024-02-14T07:53:35;6.60;81.10
3850;DHT22;1940;51.052;13.678;2024-02-14T07:56:00;6.70;80.70
3850;DHT22;1940;51.052;13.678;2024-02-14T07:58:26;6.80;80.60
3850;DHT22;1940;51.052;13.678;2024-02-14T08:00:51;7.00;80.50
3850;DHT22;1940;51.052;13.678;2024-02-14T08:03:17;7.10;80.10
3850;DHT22;1940;51.052;13.678;2024-02-14T08:05:42;7.20;79.60
3850;DHT22;1940;51.052;13.678;2024-02-14T08:08:08;7.40;79.50
3850;DHT22;1940;51.052;13.678;2024-02-14T08:10:33;7.60;79.40
3850;DHT22;1940;51.052;13.678;2024-02-14T08:12:59;7.80;78.80
3850;DHT22;1940;51.052;13.678;2024-02-14T08:15:24;8.00;78.40
3850;DHT22;1940;51.052;13.678;2024-02-14T08:17:50;8.10;76.20
3850;DHT22;1940;51.052;13.678;2024-02-14T08:20:15;8.30;76.40
3850;DHT22;1940;51.052;13.678;2024-02-14T08:22:43;8.50;75.60
3850;DHT22;1940;51.052;13.678;2024-02-14T08:25:08;8.60;74.90
3850;DHT22;1940;51.052;13.678;2024-02-14T08:27:34;8.80;74.70
3850;DHT22;1940;51.052;13.678;2024-02-14T08:29:59;8.90;73.90
3850;DHT22;1940;51.052;13.678;2024-02-14T08:32:25;8.80;74.10
3850;DHT22;1940;51.052;13.678;2024-02-14T08:34:50;8.80;74.00
3850;DHT22;1940;51.052;13.678;2024-02-14T08:37:16;8.70;74.20
3850;DHT22;1940;51.052;13.678;2024-02-14T08:39:41;8.60;74.90
3850;DHT22;1940;51.052;13.678;2024-02-14T08:42:07;8.50;75.10
3850;DHT22;1940;51.052;13.678;2024-02-14T08:44:34;8.40;75.30
3850;DHT22;1940;51.052;13.678;2024-02-14T08:47:00;8.30;75.50
3850;DHT22;1940;51.052;13.678;2024-02-14T08:49:26;8.20;75.60
3850;DHT22;1940;51.052;13.678;2024-02-14T08:51:51;8.10;76.00
3850;DHT22;1940;51.052;13.678;2024-02-14T08:54:17;8.00;76.50
3850;DHT22;1940;51.052;13.678;2024-02-14T08:56:42;8.00;77.10
3850;DHT22;1940;51.052;13.678;2024-02-14T08:59:08;8.00;77.60
3850;DHT22;1940;51.052;13.678;2024-02-14T09:01:33;8.00;77.40
3850;DHT22;1940;51.052;13.678;2024-02-14T09:03:59;8.20;76.80
3850;DHT22;1940;51.052;13.678;2024-02-14T09:06:25;8.40;76.10
3850;DHT22;1940;51.052;13.678;2024-02-14T09:08:54;8.50;76.00
3850;DHT22;1940;51.052;13.678;2024-02-14T09:11:20;8.60;75.70
3850;DHT22;1940;51.052;13.678;2024-02-14T09:13:46;8.60;75.50
3850;DHT22;1940;51.052;13.678;2024-02-14T09:16:13;8.70;75.50
3850;DHT22;1940;51.052;13.678;2024-02-14T09:18:40;8.80;75.20
3850;DHT22;1940;51.052;13.678;2024-02-14T09:21:06;8.70;75.00
3850;DHT22;1940;51.052;13.678;2024-02-14T09:23:31;8.80;75.40
3850;DHT22;1940;51.052;13.678;2024-02-14T09:25:58;8.90;75.50
3850;DHT22;1940;51.052;13.678;2024-02-14T09:28:23;9.00;75.00
3850;DHT22;1940;51.052;13.678;2024-02-14T09:30:50;9.20;74.70
3850;DHT22;1940;51.052;13.678;2024-02-14T09:33:16;9.20;74.60
3850;DHT22;1940;51.052;13.678;2024-02-14T09:35:41;9.20;74.70
3850;DHT22;1940;51.052;13.678;2024-02-14T09:38:12;9.10;75.10
3850;DHT22;1940;51.052;13.678;2024-02-14T09:40:40;9.10;75.20
3850;DHT22;1940;51.052;13.678;2024-02-14T09:45:40;9.20;74.80
3850;DHT22;1940;51.052;13.678;2024-02-14T09:48:07;9.30;74.60
3850;DHT22;1940;51.052;13.678;2024-02-14T09:50:33;9.40;74.50
3850;DHT22;1940;51.052;13.678;2024-02-14T09:52:59;9.50;74.20
3850;DHT22;1940;51.052;13.678;2024-02-14T09:55:25;9.40;74.10
3850;DHT22;1940;51.052;13.678;2024-02-14T09:57:52;9.50;73.90
3850;DHT22;1940;51.052;13.678;2024-02-14T10:00:20;9.50;74.00
3850;DHT22;1940;51.052;13.678;2024-02-14T10:02:46;9.60;73.80
3850;DHT22;1940;51.052;13.678;2024-02-14T10:05:12;9.60;73.60
3850;DHT22;1940;51.052;13.678;2024-02-14T10:07:41;9.70;73.50
3850;DHT22;1940;51.052;13.678;2024-02-14T10:10:07;9.70;73.50
3850;DHT22;1940;51.052;13.678;2024-02-14T10:12:33;9.70;73.50
3850;DHT22;1940;51.052;13.678;2024-02-14T10:14:59;9.70;73.70
3850;DHT22;1940;51.052;13.678;2024-02-14T10:17:24;9.80;73.40
3850;DHT22;1940;51.052;13.678;2024-02-14T10:19:58;9.90;73.30
3850;DHT22;1940;51.052;13.678;2024-02-14T10:22:25;9.90;73.30
3850;DHT22;1940;51.052;13.678;2024-02-14T10:24:51;10.00;73.30
3850;DHT22;1940;51.052;13.678;2024-02-14T10:27:17;10.00;72.90
3850;DHT22;1940;51.052;13.678;2024-02-14T10:29:42;10.00;73.00
3850;DHT22;1940;51.052;13.678;2024-02-14T10:32:09;10.00;73.10
3850;DHT22;1940;51.052;13.678;2024-02-14T10:34:37;10.10;73.70
3850;DHT22;1940;51.052;13.678;2024-02-14T10:37:05;10.00;73.70
3850;DHT22;1940;51.052;13.678;2024-02-14T10:39:32;10.00;74.00
3850;DHT22;1940;51.052;13.678;2024-02-14T10:42:00;10.10;75.00
3850;DHT22;1940;51.052;13.678;2024-02-14T10:44:27;10.20;77.30
3850;DHT22;1940;51.052;13.678;2024-02-14T10:46:52;10.30;78.10
3850;DHT22;1940;51.052;13.678;2024-02-14T10:49:21;10.40;78.40
3850;DHT22;1940;51.052;13.678;2024-02-14T10:51:51;10.60;77.80
3850;DHT22;1940;51.052;13.678;2024-02-14T10:54:19;10.80;77.90
3850;DHT22;1940;51.052;13.678;2024-02-14T10:56:49;11.00;77.40
3850;DHT22;1940;51.052;13.678;2024-02-14T10:59:19;11.00;77.20
3850;DHT22;1940;51.052;13.678;2024-02-14T11:01:46;11.10;77.20
3850;DHT22;1940;51.052;13.678;2024-02-14T11:04:12;11.30;77.30
3850;DHT22;1940;51.052;13.678;2024-02-14T11:06:48;11.70;76.30
3850;DHT22;1940;51.052;13.678;2024-02-14T11:09:14;11.80;75.70
3850;DHT22;1940;51.052;13.678;2024-02-14T11:11:42;12.00;75.20
3850;DHT22;1940;51.052;13.678;2024-02-14T11:14:08;11.90;75.10
3850;DHT22;1940;51.052;13.678;2024-02-14T11:16:34;12.00;75.00
3850;DHT22;1940;51.052;13.678;2024-02-14T11:19:12;12.10;75.20
3850;DHT22;1940;51.052;13.678;2024-02-14T11:24:14;12.60;74.40
3850;DHT22;1940;51.052;13.678;2024-02-14T11:26:50;12.80;73.40
3850;DHT22;1940;51.052;13.678;2024-02-14T11:29:19;12.80;73.00
3850;DHT22;1940;51.052;13.678;2024-02-14T11:31:45;12.60;73.20
3850;DHT22;1940;51.052;13.678;2024-02-14T11:34:14;12.50;73.30
3850;DHT22;1940;51.052;13.678;2024-02-14T11:36:42;12.60;73.90
3850;DHT22;1940;51.052;13.678;2024-02-14T11:39:07;12.70;73.40
3850;DHT22;1940;51.052;13.678;2024-02-14T11:41:34;12.90;72.70
3850;DHT22;1940;51.052;13.678;2024-02-14T11:44:03;13.00;72.60
3850;DHT22;1940;51.052;13.678;2024-02-14T11:46:36;13.00;72.20
3850;DHT22;1940;51.052;13.678;2024-02-14T11:49:03;13.00;72.10
3850;DHT22;1940;51.052;13.678;2024-02-14T11:51:30;13.10;72.40
3850;DHT22;1940;51.052;13.678;2024-02-14T11:53:57;13.30;71.80
3850;DHT22;1940;51.052;13.678;2024-02-14T11:56:39;13.30;71.50
3850;DHT22;1940;51.052;13.678;2024-02-14T11:59:06;13.50;71.50
3850;DHT22;1940;51.052;13.678;2024-02-14T12:01:34;13.40;71.10
3850;DHT22;1940;51.052;13.678;2024-02-14T12:04:01;13.20;71.50
3850;DHT22;1940;51.052;13.678;2024-02-14T12:06:28;13.10;71.90
3850;DHT22;1940;51.052;13.678;2024-02-14T12:08:55;13.00;72.50
3850;DHT22;1940;51.052;13.678;2024-02-14T12:11:21;12.90;72.40
3850;DHT22;1940;51.052;13.678;2024-02-14T12:13:50;12.80;72.70
3850;DHT22;1940;51.052;13.678;2024-02-14T12:16:15;12.80;72.80
3850;DHT22;1940;51.052;13.678;2024-02-14T12:18:41;12.70;73.30
3850;DHT22;1940;51.052;13.678;2024-02-14T12:21:07;12.80;73.50
3850;DHT22;1940;51.052;13.678;2024-02-14T12:23:33;12.80;73.40
3850;DHT22;1940;51.052;13.678;2024-02-14T12:26:03;12.80;73.10
3850;DHT22;1940;51.052;13.678;2024-02-14T12:28:29;12.70;73.60
3850;DHT22;1940;51.052;13.678;2024-02-14T12:30:58;12.70;73.30
3850;DHT22;1940;51.052;13.678;2024-02-14T12:33:24;12.70;73.80
3850;DHT22;1940;51.052;13.678;2024-02-14T12:35:51;12.60;74.10
3850;DHT22;1940;51.052;13.678;2024-02-14T12:38:20;12.70;73.70
3850;DHT22;1940;51.052;13.678;2024-02-14T12:40:46;12.70;73.50
3850;DHT22;1940;51.052;13.678;2024-02-14T12:43:13;12.80;73.60
3850;DHT22;1940;51.052;13.678;2024-02-14T12:45:39;12.80;73.50
3850;DHT22;1940;51.052;13.678;2024-02-14T12:48:06;12.90;73.40
3850;DHT22;1940;51.052;13.678;2024-02-14T12:50:34;13.00;73.30
3850;DHT22;1940;51.052;13.678;2024-02-14T12:53:00;13.00;73.10
3850;DHT22;1940;51.052;13.678;2024-02-14T12:55:26;13.10;73.40
3850;DHT22;1940;51.052;13.678;2024-02-14T12:57:54;13.10;73.10
3850;DHT22;1940;51.052;13.678;2024-02-14T13:00:20;13.10;73.40
3850;DHT22;1940;51.052;13.678;2024-02-14T13:02:47;13.00;73.40
3850;DHT22;1940;51.052;13.678;2024-02-14T13:05:13;13.00;73.60
3850;DHT22;1940;51.052;13.678;2024-02-14T13:07:39;13.10;73.50
3850;DHT22;1940;51.052;13.678;2024-02-14T13:10:05;13.10;73.80
3850;DHT22;1940;51.052;13.678;2024-02-14T13:12:30;13.10;73.60
3850;DHT22;1940;51.052;13.678;2024-02-14T13:14:56;13.30;73.50
3850;DHT22;1940;51.052;13.678;2024-02-14T13:17:21;13.20;72.90
3850;DHT22;1940;51.052;13.678;2024-02-14T13:19:48;13.30;73.10
3850;DHT22;1940;51.052;13.678;2024-02-14T13:22:15;13.20;73.10
3850;DHT22;1940;51.052;13.678;2024-02-14T13:24:41;13.00;73.70
3850;DHT22;1940;51.052;13.678;2024-02-14T13:27:07;13.00;73.70
3850;DHT22;1940;51.052;13.678;2024-02-14T13:29:32;13.00;73.90
3850;DHT22;1940;51.052;13.678;2024-02-14T13:31:58;13.10;73.80
3850;DHT22;1940;51.052;13.678;2024-02-14T13:34:25;13.10;73.50
3850;DHT22;1940;51.052;13.678;2024-02-14T13:36:50;13.00;73.80
3850;DHT22;1940;51.052;13.678;2024-02-14T13:39:16;12.90;73.90
3850;DHT22;1940;51.052;13.678;2024-02-14T13:41:41;12.80;74.40
3850;DHT22;1940;51.052;13.678;2024-02-14T13:44:10;12.90;74.20
3850;DHT22;1940;51.052;13.678;2024-02-14T13:46:36;12.90;74.60
3850;DHT22;1940;51.052;13.678;2024-02-14T13:49:02;12.80;74.40
3850;DHT22;1940;51.052;13.678;2024-02-14T13:51:27;12.70;75.10
3850;DHT22;1940;51.052;13.678;2024-02-14T13:53:53;12.70;75.10
3850;DHT22;1940;51.052;13.678;2024-02-14T13:56:19;12.80;75.20
3850;DHT22;1940;51.052;13.678;2024-02-14T13:58:47;12.80;75.10
3850;DHT22;1940;51.052;13.678;2024-02-14T14:01:14;12.80;75.40
3850;DHT22;1940;51.052;13.678;2024-02-14T14:03:40;12.80;75.50
3850;DHT22;1940;51.052;13.678;2024-02-14T14:06:06;12.80;75.20
3850;DHT22;1940;51.052;13.678;2024-02-14T14:08:34;12.80;75.30
3850;DHT22;1940;51.052;13.678;2024-02-14T14:11:02;12.80;75.50
3850;DHT22;1940;51.052;13.678;2024-02-14T14:13:27;12.80;75.30
3850;DHT22;1940;51.052;13.678;2024-02-14T14:15:59;12.80;75.50
3850;DHT22;1940;51.052;13.678;2024-02-14T14:18:25;12.70;75.50
3850;DHT22;1940;51.052;13.678;2024-02-14T14:20:51;12.60;75.80
3850;DHT22;1940;51.052;13.678;2024-02-14T14:23:17;12.50;75.90
3850;DHT22;1940;51.052;13.678;2024-02-14T14:25:43;12.50;76.30
3850;DHT22;1940;51.052;13.678;2024-02-14T14:28:08;12.50;76.50
3850;DHT22;1940;51.052;13.678;2024-02-14T14:30:35;12.60;76.30
3850;DHT22;1940;51.052;13.678;2024-02-14T14:33:01;12.60;76.30
3850;DHT22;1940;51.052;13.678;2024-02-14T14:35:27;12.50;76.40
3850;DHT22;1940;51.052;13.678;2024-02-14T14:37:54;12.50;76.30
3850;DHT22;1940;51.052;13.678;2024-02-14T14:40:19;12.30;76.80
3850;DHT22;1940;51.052;13.678;2024-02-14T14:42:46;12.30;76.70
3850;DHT22;1940;51.052;13.678;2024-02-14T14:45:12;12.20;77.40
3850;DHT22;1940;51.052;13.678;2024-02-14T14:47:37;12.20;77.70
3850;DHT22;1940;51.052;13.678;2024-02-14T14:50:04;12.20;77.60
3850;DHT22;1940;51.052;13.678;2024-02-14T14:52:29;12.20;77.70
3850;DHT22;1940;51.052;13.678;2024-02-14T14:54:55;12.30;77.40
3850;DHT22;1940;51.052;13.678;2024-02-14T14:57:20;12.30;77.20
3850;DHT22;1940;51.052;13.678;2024-02-14T14:59:46;12.30;77.10
3850;DHT22;1940;51.052;13.678;2024-02-14T15:02:11;12.30;77.20
3850;DHT22;1940;51.052;13.678;2024-02-14T15:04:37;12.30;77.20
3850;DHT22;1940;51.052;13.678;2024-02-14T15:07:05;12.30;77.20
3850;DHT22;1940;51.052;13.678;2024-02-14T15:09:30;12.20;77.20
3850;DHT22;1940;51.052;13.678;2024-02-14T15:11:56;12.10;77.20
3850;DHT22;1940;51.052;13.678;2024-02-14T15:14:22;12.00;77.50
3850;DHT22;1940;51.052;13.678;2024-02-14T15:16:47;11.90;77.90
3850;DHT22;1940;51.052;13.678;2024-02-14T15:19:13;11.80;78.20
3850;DHT22;1940;51.052;13.678;2024-02-14T15:21:39;11.80;78.40
3850;DHT22;1940;51.052;13.678;2024-02-14T15:24:04;11.80;78.50
3850;DHT22;1940;51.052;13.678;2024-02-14T15:26:30;11.70;78.80
3850;DHT22;1940;51.052;13.678;2024-02-14T15:29:04;11.70;78.80
3850;DHT22;1940;51.052;13.678;2024-02-14T15:31:48;11.60;78.80
3850;DHT22;1940;51.052;13.678;2024-02-14T15:34:32;11.60;78.90
3850;DHT22;1940;51.052;13.678;2024-02-14T15:36:57;11.60;79.10
3850;DHT22;1940;51.052;13.678;2024-02-14T15:39:23;11.60;79.10
3850;DHT22;1940;51.052;13.678;2024-02-14T15:41:49;11.60;79.30
3850;DHT22;1940;51.052;13.678;2024-02-14T15:44:14;11.60;79.10
3850;DHT22;1940;51.052;13.678;2024-02-14T15:46:40;11.50;79.40
3850;DHT22;1940;51.052;13.678;2024-02-14T15:49:06;11.50;79.50
3850;DHT22;1940;51.052;13.678;2024-02-14T15:51:37;11.50;79.50
3850;DHT22;1940;51.052;13.678;2024-02-14T15:54:02;11.50;79.50
3850;DHT22;1940;51.052;13.678;2024-02-14T15:56:28;11.50;79.60